sensor_id;sensor_type;location;lat;lon;timestamp;pressure;altitude;pressure_sealevel;temperature;humidity
4767;BME280;2397;53.576;9.746;2023-05-23T00:01:58;101296.41;;;17.32;88.64
4767;BME280;2397;53.576;9.746;2023-05-23T00:04:25;101288.84;;;17.35;88.56
4767;BME280;2397;53.576;9.746;2023-05-23T00:06:52;101293.03;;;17.38;88.05
4767;BME280;2397;53.576;9.746;2023-05-23T00:09:19;101295.03;;;17.36;87.87
4767;BME280;2397;53.576;9.746;2023-05-23T00:11:46;101293.91;;;17.30;88.26
4767;BME280;2397;53.576;9.746;2023-05-23T00:14:13;101282.22;;;17.31;88.38
4767;BME280;2397;53.576;9.746;2023-05-23T00:16:41;101279.66;;;17.23;88.70
4767;BME280;2397;53.576;9.746;2023-05-23T00:19:10;101268.97;;;17.23;88.90
4767;BME280;2397;53.576;9.746;2023-05-23T00:21:37;101269.47;;;17.27;88.56
4767;BME280;2397;53.576;9.746;2023-05-23T00:24:03;101267.59;;;17.27;88.67
4767;BME280;2397;53.576;9.746;2023-05-23T00:26:31;101268.13;;;17.23;88.83
4767;BME280;2397;53.576;9.746;2023-05-23T00:28:57;101267.41;;;17.29;88.38
4767;BME280;2397;53.576;9.746;2023-05-23T00:31:24;101265.41;;;17.31;88.07
4767;BME280;2397;53.576;9.746;2023-05-23T00:33:51;101262.56;;;17.32;88.10
4767;BME280;2397;53.576;9.746;2023-05-23T00:36:17;101260.78;;;17.25;87.71
4767;BME280;2397;53.576;9.746;2023-05-23T00:38:44;101258.97;;;17.25;87.69
4767;BME280;2397;53.576;9.746;2023-05-23T00:41:14;101250.97;;;17.25;87.60
4767;BME280;2397;53.576;9.746;2023-05-23T00:43:41;101249.94;;;17.26;87.90
4767;BME280;2397;53.576;9.746;2023-05-23T00:46:09;101249.41;;;17.31;87.80
4767;BME280;2397;53.576;9.746;2023-05-23T00:48:36;101253.53;;;17.33;87.68
4767;BME280;2397;53.576;9.746;2023-05-23T00:51:04;101244.06;;;17.31;87.34
4767;BME280;2397;53.576;9.746;2023-05-23T00:53:31;101248.03;;;17.35;87.02
4767;BME280;2397;53.576;9.746;2023-05-23T00:55:58;101247.00;;;17.36;86.91
4767;BME280;2397;53.576;9.746;2023-05-23T00:58:25;101241.59;;;17.29;87.27
4767;BME280;2397;53.576;9.746;2023-05-23T01:00:52;101244.97;;;17.23;87.92
4767;BME280;2397;53.576;9.746;2023-05-23T01:03:20;101237.97;;;17.22;87.64
4767;BME280;2397;53.576;9.746;2023-05-23T01:05:47;101244.44;;;17.28;86.97
4767;BME280;2397;53.576;9.746;2023-05-23T01:08:13;101238.06;;;17.14;87.30
4767;BME280;2397;53.576;9.746;2023-05-23T01:10:41;101238.31;;;17.05;87.24
4767;BME280;2397;53.576;9.746;2023-05-23T01:15:46;101243.56;;;16.53;86.86
4767;BME280;2397;53.576;9.746;2023-05-23T01:18:21;101248.78;;;16.46;87.64
4767;BME280;2397;53.576;9.746;2023-05-23T01:20:56;101245.56;;;16.20;87.52
4767;BME280;2397;53.576;9.746;2023-05-23T01:23:54;101250.31;;;16.02;87.47
4767;BME280;2397;53.576;9.746;2023-05-23T01:29:25;101254.28;;;15.68;87.47
4767;BME280;2397;53.576;9.746;2023-05-23T01:31:54;101255.41;;;15.73;87.43
4767;BME280;2397;53.576;9.746;2023-05-23T01:34:23;101249.84;;;15.44;87.69
4767;BME280;2397;53.576;9.746;2023-05-23T01:36:54;101250.34;;;15.48;88.42
4767;BME280;2397;53.576;9.746;2023-05-23T01:39:22;101253.81;;;15.48;88.71
4767;BME280;2397;53.576;9.746;2023-05-23T01:41:50;101258.00;;;15.43;88.57
4767;BME280;2397;53.576;9.746;2023-05-23T01:44:19;101259.50;;;15.21;89.22
4767;BME280;2397;53.576;9.746;2023-05-23T01:46:47;101252.84;;;15.33;89.75
4767;BME280;2397;53.576;9.746;2023-05-23T01:49:15;101250.84;;;15.43;89.57
4767;BME280;2397;53.576;9.746;2023-05-23T01:51:44;101249.69;;;15.30;89.33
4767;BME280;2397;53.576;9.746;2023-05-23T01:54:12;101259.50;;;15.21;89.00
4767;BME280;2397;53.576;9.746;2023-05-23T01:56:40;101251.88;;;15.10;89.21
4767;BME280;2397;53.576;9.746;2023-05-23T01:59:08;101255.53;;;15.01;89.25
4767;BME280;2397;53.576;9.746;2023-05-23T02:01:36;101253.03;;;15.16;89.77
4767;BME280;2397;53.576;9.746;2023-05-23T02:04:03;101259.00;;;15.26;89.52
4767;BME280;2397;53.576;9.746;2023-05-23T02:06:30;101255.69;;;15.24;89.27
4767;BME280;2397;53.576;9.746;2023-05-23T02:08:57;101256.88;;;15.13;89.32
4767;BME280;2397;53.576;9.746;2023-05-23T02:11:24;101249.53;;;15.15;88.91
4767;BME280;2397;53.576;9.746;2023-05-23T02:13:50;101245.91;;;15.16;89.02
4767;BME280;2397;53.576;9.746;2023-05-23T02:16:17;101258.69;;;15.13;89.15
4767;BME280;2397;53.576;9.746;2023-05-23T02:18:44;101251.88;;;15.10;89.08
4767;BME280;2397;53.576;9.746;2023-05-23T02:21:11;101250.53;;;15.14;89.25
4767;BME280;2397;53.576;9.746;2023-05-23T02:23:38;101252.88;;;15.17;88.70
4767;BME280;2397;53.576;9.746;2023-05-23T02:26:06;101251.19;;;15.24;88.50
4767;BME280;2397;53.576;9.746;2023-05-23T02:28:34;101252.53;;;15.04;88.68
4767;BME280;2397;53.576;9.746;2023-05-23T02:31:01;101261.03;;;15.00;89.36
4767;BME280;2397;53.576;9.746;2023-05-23T02:33:28;101259.69;;;15.04;89.11
4767;BME280;2397;53.576;9.746;2023-05-23T02:35:54;101265.50;;;14.91;89.52
4767;BME280;2397;53.576;9.746;2023-05-23T02:38:21;101265.81;;;15.04;89.13
4767;BME280;2397;53.576;9.746;2023-05-23T02:40:48;101270.16;;;15.05;89.05
4767;BME280;2397;53.576;9.746;2023-05-23T02:43:16;101262.16;;;14.97;88.96
4767;BME280;2397;53.576;9.746;2023-05-23T02:45:43;101259.53;;;14.81;88.78
4767;BME280;2397;53.576;9.746;2023-05-23T02:48:09;101260.53;;;14.72;89.33
4767;BME280;2397;53.576;9.746;2023-05-23T02:50:37;101269.16;;;14.82;89.32
4767;BME280;2397;53.576;9.746;2023-05-23T02:53:04;101272.66;;;14.83;89.21
4767;BME280;2397;53.576;9.746;2023-05-23T02:55:31;101277.44;;;14.71;89.34
4767;BME280;2397;53.576;9.746;2023-05-23T02:57:58;101268.66;;;14.71;89.44
4767;BME280;2397;53.576;9.746;2023-05-23T03:00:24;101268.66;;;14.71;89.34
4767;BME280;2397;53.576;9.746;2023-05-23T03:02:54;101265.47;;;14.75;89.55
4767;BME280;2397;53.576;9.746;2023-05-23T03:05:20;101265.66;;;14.74;89.43
4767;BME280;2397;53.576;9.746;2023-05-23T03:07:47;101265.31;;;14.77;89.74
4767;BME280;2397;53.576;9.746;2023-05-23T03:10:14;101276.47;;;14.80;89.51
4767;BME280;2397;53.576;9.746;2023-05-23T03:12:41;101266.00;;;14.79;89.18
4767;BME280;2397;53.576;9.746;2023-05-23T03:15:09;101264.84;;;14.73;89.38
4767;BME280;2397;53.576;9.746;2023-05-23T03:17:38;101269.50;;;14.87;89.58
4767;BME280;2397;53.576;9.746;2023-05-23T03:20:05;101263.50;;;14.69;89.50
4767;BME280;2397;53.576;9.746;2023-05-23T03:22:37;101268.13;;;14.75;89.58
4767;BME280;2397;53.576;9.746;2023-05-23T03:25:04;101268.13;;;14.75;89.35
4767;BME280;2397;53.576;9.746;2023-05-23T03:27:31;101268.81;;;14.69;88.89
4767;BME280;2397;53.576;9.746;2023-05-23T03:29:58;101271.13;;;14.64;89.11
4767;BME280;2397;53.576;9.746;2023-05-23T03:32:25;101263.50;;;14.69;88.95
4767;BME280;2397;53.576;9.746;2023-05-23T03:34:52;101264.69;;;14.75;88.75
4767;BME280;2397;53.576;9.746;2023-05-23T03:37:19;101259.03;;;14.86;88.19
4767;BME280;2397;53.576;9.746;2023-05-23T03:39:46;101263.50;;;14.69;88.19
4767;BME280;2397;53.576;9.746;2023-05-23T03:42:14;101259.84;;;14.70;88.61
4767;BME280;2397;53.576;9.746;2023-05-23T03:44:40;101257.88;;;14.72;88.47
4767;BME280;2397;53.576;9.746;2023-05-23T03:47:07;101257.81;;;14.56;88.78
4767;BME280;2397;53.576;9.746;2023-05-23T03:49:37;101258.50;;;14.50;89.38
4767;BME280;2397;53.576;9.746;2023-05-23T03:52:04;101259.47;;;14.49;89.59
4767;BME280;2397;53.576;9.746;2023-05-23T03:54:31;101266.13;;;14.53;89.65
4767;BME280;2397;53.576;9.746;2023-05-23T03:56:58;101268.78;;;14.53;89.38
4767;BME280;2397;53.576;9.746;2023-05-23T03:59:24;101275.25;;;14.51;89.60
4767;BME280;2397;53.576;9.746;2023-05-23T04:01:51;101272.44;;;14.52;89.59
4767;BME280;2397;53.576;9.746;2023-05-23T04:04:18;101266.31;;;14.52;89.43
4767;BME280;2397;53.576;9.746;2023-05-23T04:06:48;101267.91;;;14.37;89.88
4767;BME280;2397;53.576;9.746;2023-05-23T04:09:15;101267.44;;;14.41;89.95
4767;BME280;2397;53.576;9.746;2023-05-23T04:11:45;101263.13;;;14.40;90.13
4767;BME280;2397;53.576;9.746;2023-05-23T04:14:13;101261.13;;;14.42;90.13
4767;BME280;2397;53.576;9.746;2023-05-23T04:16:40;101261.47;;;14.47;89.83
4767;BME280;2397;53.576;9.746;2023-05-23T04:19:08;101268.59;;;14.47;89.46
4767;BME280;2397;53.576;9.746;2023-05-23T04:21:35;101270.78;;;14.51;89.64
4767;BME280;2397;53.576;9.746;2023-05-23T04:24:07;101276.59;;;14.55;89.51
4767;BME280;2397;53.576;9.746;2023-05-23T04:26:34;101279.41;;;14.53;89.46
4767;BME280;2397;53.576;9.746;2023-05-23T04:29:03;101278.59;;;14.53;89.59
4767;BME280;2397;53.576;9.746;2023-05-23T04:31:30;101281.91;;;14.55;89.61
4767;BME280;2397;53.576;9.746;2023-05-23T04:33:56;101286.56;;;14.61;89.50
4767;BME280;2397;53.576;9.746;2023-05-23T04:36:23;101286.72;;;14.43;89.72
4767;BME280;2397;53.576;9.746;2023-05-23T04:38:53;101285.84;;;14.35;90.18
4767;BME280;2397;53.576;9.746;2023-05-23T04:41:20;101287.50;;;14.36;90.44
4767;BME280;2397;53.576;9.746;2023-05-23T04:43:53;101280.38;;;14.36;90.75
4767;BME280;2397;53.576;9.746;2023-05-23T04:46:37;101284.69;;;14.37;91.03
4767;BME280;2397;53.576;9.746;2023-05-23T04:49:11;101287.97;;;14.31;91.19
4767;BME280;2397;53.576;9.746;2023-05-23T04:51:39;101286.31;;;14.30;91.52
4767;BME280;2397;53.576;9.746;2023-05-23T04:54:17;101284.84;;;14.36;91.59
4767;BME280;2397;53.576;9.746;2023-05-23T04:56:44;101279.56;;;14.44;91.33
4767;BME280;2397;53.576;9.746;2023-05-23T04:59:12;101284.69;;;14.45;91.15
4767;BME280;2397;53.576;9.746;2023-05-23T05:01:39;101289.03;;;14.46;91.14
4767;BME280;2397;53.576;9.746;2023-05-23T05:04:07;101293.69;;;14.52;90.72
4767;BME280;2397;53.576;9.746;2023-05-23T05:06:34;101289.69;;;14.40;90.77
4767;BME280;2397;53.576;9.746;2023-05-23T05:09:01;101285.00;;;14.34;91.36
4767;BME280;2397;53.576;9.746;2023-05-23T05:11:28;101287.50;;;14.36;91.69
4767;BME280;2397;53.576;9.746;2023-05-23T05:13:55;101295.84;;;14.41;92.20
4767;BME280;2397;53.576;9.746;2023-05-23T05:16:22;101289.69;;;14.40;92.15
4767;BME280;2397;53.576;9.746;2023-05-23T05:18:49;101288.34;;;14.36;92.20
4767;BME280;2397;53.576;9.746;2023-05-23T05:21:17;101289.69;;;14.40;92.71
4767;BME280;2397;53.576;9.746;2023-05-23T05:23:45;101289.38;;;14.43;92.65
4767;BME280;2397;53.576;9.746;2023-05-23T05:26:14;101291.50;;;14.40;93.02
4767;BME280;2397;53.576;9.746;2023-05-23T05:28:40;101298.28;;;14.34;93.12
4767;BME280;2397;53.576;9.746;2023-05-23T05:31:07;101291.94;;;14.27;93.43
4767;BME280;2397;53.576;9.746;2023-05-23T05:33:35;101293.66;;;14.36;93.71
4767;BME280;2397;53.576;9.746;2023-05-23T05:36:11;101292.50;;;14.39;93.48
4767;BME280;2397;53.576;9.746;2023-05-23T05:38:38;101286.69;;;14.35;93.83
4767;BME280;2397;53.576;9.746;2023-05-23T05:41:05;101283.50;;;14.24;93.99
4767;BME280;2397;53.576;9.746;2023-05-23T05:43:39;101293.63;;;14.28;94.47
4767;BME280;2397;53.576;9.746;2023-05-23T05:46:05;101295.28;;;14.29;94.53
4767;BME280;2397;53.576;9.746;2023-05-23T05:48:32;101296.31;;;14.36;94.53
4767;BME280;2397;53.576;9.746;2023-05-23T05:51:04;101302.47;;;14.45;94.54
4767;BME280;2397;53.576;9.746;2023-05-23T05:53:32;101307.44;;;14.48;94.48
4767;BME280;2397;53.576;9.746;2023-05-23T05:55:59;101311.28;;;14.53;94.79
4767;BME280;2397;53.576;9.746;2023-05-23T05:58:25;101314.94;;;14.60;94.61
4767;BME280;2397;53.576;9.746;2023-05-23T06:00:58;101311.63;;;14.58;94.34
4767;BME280;2397;53.576;9.746;2023-05-23T06:03:26;101322.44;;;14.57;93.95
4767;BME280;2397;53.576;9.746;2023-05-23T06:05:54;101319.91;;;14.39;94.17
4767;BME280;2397;53.576;9.746;2023-05-23T06:08:21;101328.66;;;14.32;94.35
4767;BME280;2397;53.576;9.746;2023-05-23T06:10:47;101331.66;;;14.37;94.91
4767;BME280;2397;53.576;9.746;2023-05-23T06:13:15;101330.53;;;14.39;94.89
4767;BME280;2397;53.576;9.746;2023-05-23T06:15:44;101334.13;;;14.38;94.88
4767;BME280;2397;53.576;9.746;2023-05-23T06:18:12;101340.78;;;14.42;94.93
4767;BME280;2397;53.576;9.746;2023-05-23T06:20:39;101330.53;;;14.47;94.93
4767;BME280;2397;53.576;9.746;2023-05-23T06:23:10;101327.56;;;14.50;94.75
4767;BME280;2397;53.576;9.746;2023-05-23T06:25:38;101334.22;;;14.54;94.80
4767;BME280;2397;53.576;9.746;2023-05-23T06:28:08;101340.56;;;14.69;94.85
4767;BME280;2397;53.576;9.746;2023-05-23T06:30:34;101349.03;;;14.73;94.61
4767;BME280;2397;53.576;9.746;2023-05-23T06:33:03;101350.50;;;14.67;94.36
4767;BME280;2397;53.576;9.746;2023-05-23T06:35:30;101358.47;;;14.67;93.97
4767;BME280;2397;53.576;9.746;2023-05-23T06:37:59;101354.47;;;14.63;93.79
4767;BME280;2397;53.576;9.746;2023-05-23T06:40:26;101364.94;;;14.57;93.68
4767;BME280;2397;53.576;9.746;2023-05-23T06:42:52;101368.44;;;14.57;93.54
4767;BME280;2397;53.576;9.746;2023-05-23T06:45:28;101380.03;;;14.56;92.85
4767;BME280;2397;53.576;9.746;2023-05-23T06:47:55;101371.41;;;14.54;91.88
4767;BME280;2397;53.576;9.746;2023-05-23T06:50:23;101378.38;;;14.55;91.36
4767;BME280;2397;53.576;9.746;2023-05-23T06:52:51;101389.16;;;14.62;91.15
4767;BME280;2397;53.576;9.746;2023-05-23T06:55:17;101392.34;;;14.57;90.67
4767;BME280;2397;53.576;9.746;2023-05-23T06:57:46;101392.34;;;14.57;90.54
4767;BME280;2397;53.576;9.746;2023-05-23T07:00:17;101387.66;;;14.51;90.23
4767;BME280;2397;53.576;9.746;2023-05-23T07:03:01;101397.25;;;14.44;89.88
4767;BME280;2397;53.576;9.746;2023-05-23T07:05:29;101397.25;;;14.44;89.73
4767;BME280;2397;53.576;9.746;2023-05-23T07:07:56;101400.88;;;14.35;89.60
4767;BME280;2397;53.576;9.746;2023-05-23T07:10:23;101400.41;;;14.48;89.78
4767;BME280;2397;53.576;9.746;2023-05-23T07:12:51;101401.25;;;14.48;89.45
4767;BME280;2397;53.576;9.746;2023-05-23T07:15:20;101404.06;;;14.47;89.53
4767;BME280;2397;53.576;9.746;2023-05-23T07:17:54;101412.88;;;14.47;89.44
4767;BME280;2397;53.576;9.746;2023-05-23T07:20:21;101408.34;;;14.40;89.59
4767;BME280;2397;53.576;9.746;2023-05-23T07:22:51;101413.47;;;14.33;89.43
4767;BME280;2397;53.576;9.746;2023-05-23T07:25:18;101412.16;;;14.37;89.63
4767;BME280;2397;53.576;9.746;2023-05-23T07:27:45;101423.75;;;14.28;89.28
4767;BME280;2397;53.576;9.746;2023-05-23T07:30:11;101425.34;;;14.21;89.36
4767;BME280;2397;53.576;9.746;2023-05-23T07:32:38;101419.56;;;14.26;89.37
4767;BME280;2397;53.576;9.746;2023-05-23T07:35:07;101426.44;;;14.36;89.38
4767;BME280;2397;53.576;9.746;2023-05-23T07:37:33;101429.28;;;14.43;89.61
4767;BME280;2397;53.576;9.746;2023-05-23T07:40:00;101427.81;;;14.48;89.02
4767;BME280;2397;53.576;9.746;2023-05-23T07:42:27;101432.19;;;14.57;89.56
4767;BME280;2397;53.576;9.746;2023-05-23T07:44:53;101443.19;;;14.70;88.68
4767;BME280;2397;53.576;9.746;2023-05-23T07:47:20;101442.31;;;14.62;88.43
4767;BME280;2397;53.576;9.746;2023-05-23T07:49:47;101447.31;;;14.65;87.81
4767;BME280;2397;53.576;9.746;2023-05-23T07:52:13;101445.63;;;14.56;87.85
4767;BME280;2397;53.576;9.746;2023-05-23T07:54:40;101449.41;;;14.53;88.12
4767;BME280;2397;53.576;9.746;2023-05-23T07:57:08;101455.25;;;14.57;88.05
4767;BME280;2397;53.576;9.746;2023-05-23T07:59:35;101458.25;;;14.62;88.39
4767;BME280;2397;53.576;9.746;2023-05-23T08:02:02;101458.06;;;14.55;87.85
4767;BME280;2397;53.576;9.746;2023-05-23T08:04:29;101462.81;;;14.44;88.35
4767;BME280;2397;53.576;9.746;2023-05-23T08:06:56;101456.69;;;14.43;88.58
4767;BME280;2397;53.576;9.746;2023-05-23T08:09:48;101473.78;;;14.41;89.01
4767;BME280;2397;53.576;9.746;2023-05-23T08:12:17;101467.56;;;14.32;89.07
4767;BME280;2397;53.576;9.746;2023-05-23T08:14:45;101467.72;;;14.31;89.40
4767;BME280;2397;53.576;9.746;2023-05-23T08:17:28;101479.84;;;14.33;89.25
4767;BME280;2397;53.576;9.746;2023-05-23T08:19:56;101474.41;;;14.17;89.86
4767;BME280;2397;53.576;9.746;2023-05-23T08:22:22;101482.78;;;14.22;90.00
4767;BME280;2397;53.576;9.746;2023-05-23T08:24:49;101484.66;;;14.12;89.85
4767;BME280;2397;53.576;9.746;2023-05-23T08:27:16;101490.28;;;14.09;90.10
4767;BME280;2397;53.576;9.746;2023-05-23T08:29:47;101496.53;;;14.00;90.03
4767;BME280;2397;53.576;9.746;2023-05-23T08:32:14;101500.13;;;13.91;90.13
4767;BME280;2397;53.576;9.746;2023-05-23T08:34:40;101509.38;;;13.87;90.40
4767;BME280;2397;53.576;9.746;2023-05-23T08:37:07;101512.47;;;13.83;90.45
4767;BME280;2397;53.576;9.746;2023-05-23T08:39:34;101524.69;;;13.76;90.59
4767;BME280;2397;53.576;9.746;2023-05-23T08:42:23;101521.81;;;13.69;90.30
4767;BME280;2397;53.576;9.746;2023-05-23T08:44:50;101518.75;;;13.64;89.81
4767;BME280;2397;53.576;9.746;2023-05-23T08:47:18;101536.41;;;13.38;89.02
4767;BME280;2397;53.576;9.746;2023-05-23T08:49:56;101537.03;;;13.32;89.61
4767;BME280;2397;53.576;9.746;2023-05-23T08:52:26;101540.84;;;13.20;89.68
4767;BME280;2397;53.576;9.746;2023-05-23T08:54:54;101542.41;;;13.13;89.45
4767;BME280;2397;53.576;9.746;2023-05-23T08:57:22;101550.34;;;13.13;89.67
4767;BME280;2397;53.576;9.746;2023-05-23T08:59:55;101550.63;;;13.19;89.66
4767;BME280;2397;53.576;9.746;2023-05-23T09:02:23;101547.13;;;13.19;89.43
4767;BME280;2397;53.576;9.746;2023-05-23T09:04:54;101555.56;;;13.05;89.71
4767;BME280;2397;53.576;9.746;2023-05-23T09:07:23;101556.78;;;13.10;89.36
4767;BME280;2397;53.576;9.746;2023-05-23T09:09:51;101560.38;;;13.19;89.68
4767;BME280;2397;53.576;9.746;2023-05-23T09:12:18;101565.59;;;13.11;89.37
4767;BME280;2397;53.576;9.746;2023-05-23T09:14:49;101574.25;;;13.03;89.72
4767;BME280;2397;53.576;9.746;2023-05-23T09:17:17;101581.63;;;13.09;89.97
4767;BME280;2397;53.576;9.746;2023-05-23T09:19:45;101579.97;;;13.08;89.55
4767;BME280;2397;53.576;9.746;2023-05-23T09:22:37;101591.63;;;12.79;89.25
4767;BME280;2397;53.576;9.746;2023-05-23T09:25:12;101604.88;;;12.79;89.10
4767;BME280;2397;53.576;9.746;2023-05-23T09:27:41;101598.06;;;12.76;89.41
4767;BME280;2397;53.576;9.746;2023-05-23T09:30:13;101599.19;;;12.74;89.35
4767;BME280;2397;53.576;9.746;2023-05-23T09:32:39;101605.84;;;12.78;89.25
4767;BME280;2397;53.576;9.746;2023-05-23T09:35:08;101608.03;;;12.92;89.44
4767;BME280;2397;53.576;9.746;2023-05-23T09:37:42;101612.22;;;13.04;89.38
4767;BME280;2397;53.576;9.746;2023-05-23T09:40:12;101610.41;;;12.95;88.13
4767;BME280;2397;53.576;9.746;2023-05-23T09:42:52;101620.47;;;12.82;87.59
4767;BME280;2397;53.576;9.746;2023-05-23T09:45:19;101631.38;;;12.69;87.40
4767;BME280;2397;53.576;9.746;2023-05-23T09:47:52;101628.19;;;12.66;87.75
4767;BME280;2397;53.576;9.746;2023-05-23T09:50:19;101635.03;;;12.59;87.41
4767;BME280;2397;53.576;9.746;2023-05-23T09:52:47;101633.06;;;12.61;87.59
4767;BME280;2397;53.576;9.746;2023-05-23T09:55:14;101636.56;;;12.61;87.66
4767;BME280;2397;53.576;9.746;2023-05-23T09:57:42;101633.63;;;12.74;87.15
4767;BME280;2397;53.576;9.746;2023-05-23T10:00:10;101632.06;;;12.81;86.91
4767;BME280;2397;53.576;9.746;2023-05-23T10:03:05;101630.91;;;12.93;86.94
4767;BME280;2397;53.576;9.746;2023-05-23T10:05:45;101635.34;;;12.92;86.35
4767;BME280;2397;53.576;9.746;2023-05-23T10:08:39;101639.03;;;12.82;85.34
4767;BME280;2397;53.576;9.746;2023-05-23T10:13:46;101652.16;;;12.74;84.10
4767;BME280;2397;53.576;9.746;2023-05-23T10:16:20;101656.75;;;12.72;84.01
4767;BME280;2397;53.576;9.746;2023-05-23T10:18:56;101669.56;;;12.86;83.89
4767;BME280;2397;53.576;9.746;2023-05-23T10:21:35;101662.03;;;12.81;82.92
4767;BME280;2397;53.576;9.746;2023-05-23T10:24:04;101663.84;;;12.90;83.23
4767;BME280;2397;53.576;9.746;2023-05-23T10:26:31;101658.25;;;12.93;82.60
4767;BME280;2397;53.576;9.746;2023-05-23T10:28:59;101661.03;;;12.92;82.31
4767;BME280;2397;53.576;9.746;2023-05-23T10:31:26;101673.84;;;12.87;81.40
4767;BME280;2397;53.576;9.746;2023-05-23T10:34:07;101676.50;;;12.87;81.03
4767;BME280;2397;53.576;9.746;2023-05-23T10:36:43;101685.44;;;12.86;81.06
4767;BME280;2397;53.576;9.746;2023-05-23T10:42:00;101691.84;;;13.02;80.25
4767;BME280;2397;53.576;9.746;2023-05-23T10:44:30;101689.16;;;13.12;80.17
4767;BME280;2397;53.576;9.746;2023-05-23T10:47:02;101681.13;;;13.04;79.23
4767;BME280;2397;53.576;9.746;2023-05-23T10:49:40;101690.13;;;13.20;80.00
4767;BME280;2397;53.576;9.746;2023-05-23T10:52:09;101700.50;;;13.41;78.49
4767;BME280;2397;53.576;9.746;2023-05-23T10:54:44;101698.19;;;13.65;78.40
4767;BME280;2397;53.576;9.746;2023-05-23T10:57:14;101697.28;;;13.47;76.73
4767;BME280;2397;53.576;9.746;2023-05-23T10:59:42;101689.56;;;13.26;76.95
4767;BME280;2397;53.576;9.746;2023-05-23T11:02:15;101692.25;;;13.17;76.35
4767;BME280;2397;53.576;9.746;2023-05-23T11:04:42;101701.97;;;13.26;76.84
4767;BME280;2397;53.576;9.746;2023-05-23T11:07:41;101717.00;;;13.35;76.49
4767;BME280;2397;53.576;9.746;2023-05-23T11:10:12;101719.66;;;13.35;74.67
4767;BME280;2397;53.576;9.746;2023-05-23T11:12:43;101713.81;;;13.31;75.36
4767;BME280;2397;53.576;9.746;2023-05-23T11:17:55;101723.66;;;13.76;74.78
4767;BME280;2397;53.576;9.746;2023-05-23T11:20:25;101720.53;;;13.90;73.03
4767;BME280;2397;53.576;9.746;2023-05-23T11:23:02;101729.28;;;14.17;74.03
4767;BME280;2397;53.576;9.746;2023-05-23T11:25:58;101727.03;;;14.22;71.03
4767;BME280;2397;53.576;9.746;2023-05-23T11:28:25;101724.69;;;14.37;69.31
4767;BME280;2397;53.576;9.746;2023-05-23T11:30:52;101723.88;;;14.36;69.83
4767;BME280;2397;53.576;9.746;2023-05-23T11:33:18;101732.28;;;14.32;69.59
4767;BME280;2397;53.576;9.746;2023-05-23T11:35:47;101735.78;;;14.05;69.06
4767;BME280;2397;53.576;9.746;2023-05-23T11:38:15;101731.34;;;13.79;68.90
4767;BME280;2397;53.576;9.746;2023-05-23T11:40:44;101741.34;;;13.57;69.58
4767;BME280;2397;53.576;9.746;2023-05-23T11:43:15;101744.25;;;13.64;70.15
4767;BME280;2397;53.576;9.746;2023-05-23T11:45:43;101751.75;;;13.96;70.14
4767;BME280;2397;53.576;9.746;2023-05-23T11:48:15;101749.25;;;14.74;69.53
4767;BME280;2397;53.576;9.746;2023-05-23T11:53:09;101735.38;;;15.48;63.75
4767;BME280;2397;53.576;9.746;2023-05-23T11:55:39;101740.88;;;15.29;63.61
4767;BME280;2397;53.576;9.746;2023-05-23T11:58:09;101743.25;;;14.89;63.77
4767;BME280;2397;53.576;9.746;2023-05-23T12:00:42;101744.41;;;14.87;63.03
4767;BME280;2397;53.576;9.746;2023-05-23T12:03:09;101747.75;;;14.89;63.14
4767;BME280;2397;53.576;9.746;2023-05-23T12:05:37;101753.22;;;14.35;65.09
4767;BME280;2397;53.576;9.746;2023-05-23T12:08:03;101742.25;;;14.47;65.28
4767;BME280;2397;53.576;9.746;2023-05-23T12:10:30;101756.19;;;14.84;67.43
4767;BME280;2397;53.576;9.746;2023-05-23T12:12:57;101763.03;;;14.69;63.96
4767;BME280;2397;53.576;9.746;2023-05-23T12:15:26;101750.63;;;14.95;64.11
4767;BME280;2397;53.576;9.746;2023-05-23T12:17:54;101754.50;;;15.26;61.41
4767;BME280;2397;53.576;9.746;2023-05-23T12:20:21;101757.28;;;15.42;59.59
4767;BME280;2397;53.576;9.746;2023-05-23T12:22:48;101749.22;;;15.34;61.95
4767;BME280;2397;53.576;9.746;2023-05-23T12:25:14;101751.94;;;16.17;59.90
4767;BME280;2397;53.576;9.746;2023-05-23T12:27:40;101759.63;;;16.20;60.01
4767;BME280;2397;53.576;9.746;2023-05-23T12:30:13;101755.34;;;15.86;58.55
4767;BME280;2397;53.576;9.746;2023-05-23T12:32:43;101751.53;;;15.55;60.85
4767;BME280;2397;53.576;9.746;2023-05-23T12:35:11;101763.97;;;15.46;60.36
4767;BME280;2397;53.576;9.746;2023-05-23T12:37:39;101777.88;;;14.97;63.05
4767;BME280;2397;53.576;9.746;2023-05-23T12:40:14;101776.81;;;15.08;64.41
4767;BME280;2397;53.576;9.746;2023-05-23T12:42:54;101782.69;;;15.96;61.88
4767;BME280;2397;53.576;9.746;2023-05-23T12:45:22;101772.94;;;16.20;58.22
4767;BME280;2397;53.576;9.746;2023-05-23T12:47:49;101766.94;;;16.26;57.05
4767;BME280;2397;53.576;9.746;2023-05-23T12:50:19;101774.63;;;16.37;56.26
4767;BME280;2397;53.576;9.746;2023-05-23T12:52:46;101785.97;;;16.31;57.44
4767;BME280;2397;53.576;9.746;2023-05-23T12:55:13;101780.53;;;15.99;55.37
4767;BME280;2397;53.576;9.746;2023-05-23T12:57:39;101786.56;;;15.42;56.93
4767;BME280;2397;53.576;9.746;2023-05-23T13:00:06;101791.63;;;15.53;56.94
4767;BME280;2397;53.576;9.746;2023-05-23T13:02:33;101798.13;;;15.92;59.79
4767;BME280;2397;53.576;9.746;2023-05-23T13:05:00;101796.47;;;15.66;57.02
4767;BME280;2397;53.576;9.746;2023-05-23T13:07:26;101808.19;;;15.47;58.46
4767;BME280;2397;53.576;9.746;2023-05-23T13:09:53;101805.00;;;15.44;59.40
4767;BME280;2397;53.576;9.746;2023-05-23T13:12:20;101816.78;;;15.41;57.53
4767;BME280;2397;53.576;9.746;2023-05-23T13:14:47;101808.97;;;15.22;57.90
4767;BME280;2397;53.576;9.746;2023-05-23T13:17:14;101812.19;;;15.08;57.03
4767;BME280;2397;53.576;9.746;2023-05-23T13:19:41;101819.50;;;15.06;58.79
4767;BME280;2397;53.576;9.746;2023-05-23T13:22:08;101808.81;;;14.98;57.38
4767;BME280;2397;53.576;9.746;2023-05-23T13:24:36;101810.94;;;14.77;56.99
4767;BME280;2397;53.576;9.746;2023-05-23T13:27:04;101828.31;;;14.54;58.67
4767;BME280;2397;53.576;9.746;2023-05-23T13:29:31;101835.41;;;14.36;59.43
4767;BME280;2397;53.576;9.746;2023-05-23T13:31:58;101831.75;;;14.37;59.70
4767;BME280;2397;53.576;9.746;2023-05-23T13:34:25;101835.28;;;14.55;61.09
4767;BME280;2397;53.576;9.746;2023-05-23T13:36:53;101833.97;;;14.24;60.69